Time;durP1;ratioP1;P1;durP2;ratioP2;P2;SDS_P1;SDS_P2;PMS_P1;PMS_P2;Temp;Humidity;BMP_temperature;BMP_pressure;BME280_temperature;BME280_humidity;BME280_pressure;Samples;Min_cycle;Max_cycle;Signal;HPM_P1;HPM_P2
2021/12/30 00:01:44;;;;;;;;;;;;;;;9.73;100.00;101111.84;4997673;28;20280;-71
2021/12/30 00:04:10;;;;;;;;;;;;;;;9.79;100.00;101118.06;5003299;28;20296;-69
2021/12/30 00:06:40;;;;;;;;;;;;;;;9.82;100.00;101120.75;5003400;28;19928;-70
2021/12/30 00:09:05;;;;;;;;;;;;;;;9.77;100.00;101118.81;5000709;28;19922;-69
2021/12/30 00:11:31;;;;;;;;;;;;;;;9.75;100.00;101123.91;4999514;28;19929;-71
2021/12/30 00:13:56;;;;;;;;;;;;;;;9.74;100.00;101123.88;5002250;28;19921;-71
2021/12/30 00:16:21;;;;;;;;;;;;;;;9.73;100.00;101122.13;5005667;28;20013;-68
2021/12/30 00:18:47;;;;;;;;;;;;;;;9.77;100.00;101134.22;5004024;28;19925;-69
2021/12/30 00:21:12;;;;;;;;;;;;;;;9.80;100.00;101127.53;4998080;28;20000;-70
2021/12/30 00:23:38;;;;;;;;;;;;;;;9.85;100.00;101136.28;5003714;28;19925;-71
2021/12/30 00:26:04;;;;;;;;;;;;;;;9.85;100.00;101128.56;5005396;28;19925;-70
2021/12/30 00:28:29;;;;;;;;;;;;;;;9.84;100.00;101136.22;5002903;28;19983;-70
2021/12/30 00:30:54;;;;;;;;;;;;;;;9.87;100.00;101129.47;5003026;28;19984;-70
2021/12/30 00:33:20;;;;;;;;;;;;;;;9.90;100.00;101136.44;5002068;28;19925;-70
2021/12/30 00:35:46;;;;;;;;;;;;;;;9.99;100.00;101133.31;5005219;28;19926;-70
2021/12/30 00:38:11;;;;;;;;;;;;;;;10.07;100.00;101142.13;5005099;28;20087;-70
2021/12/30 00:40:39;;;;;;;;;;;;;;;10.06;100.00;101140.41;5007569;28;20391;-69
2021/12/30 00:43:05;;;;;;;;;;;;;;;10.08;100.00;101142.22;5006909;28;19925;-69
2021/12/30 00:45:31;;;;;;;;;;;;;;;10.13;100.00;101150.06;5007482;28;19917;-70
2021/12/30 00:47:57;;;;;;;;;;;;;;;10.14;100.00;101150.13;5005238;28;19926;-70
2021/12/30 00:50:22;;;;;;;;;;;;;;;10.15;100.00;101154.44;5004792;28;19940;-71
2021/12/30 00:52:48;;;;;;;;;;;;;;;10.16;100.00;101142.47;5006822;28;20399;-71
2021/12/30 00:55:13;;;;;;;;;;;;;;;10.18;100.00;101146.81;5006263;28;19984;-69
2021/12/30 00:57:38;;;;;;;;;;;;;;;10.18;100.00;101154.53;5006130;28;19931;-69
2021/12/30 01:00:07;;;;;;;;;;;;;;;10.20;100.00;101149.47;5007052;28;20409;-68
2021/12/30 01:02:33;;;;;;;;;;;;;;;10.24;100.00;101141.06;5004595;28;19933;-68
2021/12/30 01:04:58;;;;;;;;;;;;;;;10.25;100.00;101147.94;5006643;28;19925;-70
2021/12/30 01:07:23;;;;;;;;;;;;;;;10.25;100.00;101144.50;5006806;28;19929;-69
2021/12/30 01:09:49;;;;;;;;;;;;;;;10.23;100.00;101147.03;5005980;28;20034;-69
2021/12/30 01:12:14;;;;;;;;;;;;;;;10.33;100.00;101150.78;5005272;28;20343;-69
2021/12/30 01:14:45;;;;;;;;;;;;;;;10.30;100.00;101150.66;5006185;28;20028;-70
2021/12/30 01:17:17;;;;;;;;;;;;;;;10.28;100.00;101152.31;5005724;28;19957;-69
2021/12/30 01:19:42;;;;;;;;;;;;;;;10.30;100.00;101153.25;5005582;28;19929;-70
2021/12/30 01:22:22;;;;;;;;;;;;;;;10.42;100.00;101159.66;5005401;28;20422;-69
2021/12/30 01:24:47;;;;;;;;;;;;;;;10.35;100.00;101162.00;5007385;28;20376;-69
2021/12/30 01:27:12;;;;;;;;;;;;;;;10.33;100.00;101161.06;5004961;28;19952;-69
2021/12/30 01:29:38;;;;;;;;;;;;;;;10.35;100.00;101162.00;5005434;28;19944;-69
2021/12/30 01:32:03;;;;;;;;;;;;;;;10.39;100.00;101162.16;5006899;28;19929;-69
2021/12/30 01:34:29;;;;;;;;;;;;;;;10.40;100.00;101169.03;5004673;28;20068;-69
2021/12/30 01:36:59;;;;;;;;;;;;;;;10.39;100.00;101163.84;5005773;28;19921;-70
2021/12/30 01:39:25;;;;;;;;;;;;;;;10.50;100.00;101156.50;5004859;28;19926;-70
2021/12/30 01:41:50;;;;;;;;;;;;;;;10.50;100.00;101156.50;5005012;28;19979;-69
2021/12/30 01:44:15;;;;;;;;;;;;;;;10.59;100.00;101157.66;5005857;28;20316;-70
2021/12/30 01:46:42;;;;;;;;;;;;;;;10.56;100.00;101157.56;5003668;28;19993;-70
2021/12/30 01:49:08;;;;;;;;;;;;;;;10.56;100.00;101149.00;5005554;28;19926;-71
2021/12/30 01:51:33;;;;;;;;;;;;;;;10.66;100.00;101154.44;5005131;28;19947;-70
2021/12/30 01:53:58;;;;;;;;;;;;;;;10.70;100.00;101142.59;5002914;28;20367;-71
2021/12/30 01:56:24;;;;;;;;;;;;;;;10.73;100.00;101151.25;5004068;28;20299;-69
2021/12/30 01:58:49;;;;;;;;;;;;;;;10.79;100.00;101149.69;5005103;28;19983;-68
2021/12/30 02:01:14;;;;;;;;;;;;;;;10.78;100.00;101148.81;5004353;28;20352;-68
2021/12/30 02:03:39;;;;;;;;;;;;;;;10.84;100.00;101133.59;5006658;28;20026;-70
2021/12/30 02:06:05;;;;;;;;;;;;;;;10.89;100.00;101132.03;5004567;28;21787;-72
2021/12/30 02:08:30;;;;;;;;;;;;;;;10.87;100.00;101137.97;5004197;28;19960;-70
2021/12/30 02:10:55;;;;;;;;;;;;;;;11.00;100.00;101140.09;5005271;28;19936;-70
2021/12/30 02:13:21;;;;;;;;;;;;;;;10.98;100.00;101147.78;5005110;28;19929;-73
2021/12/30 02:15:46;;;;;;;;;;;;;;;10.98;100.00;101162.31;5003925;28;19925;-70
2021/12/30 02:18:11;;;;;;;;;;;;;;;11.05;100.00;101168.53;5004600;28;19930;-70
2021/12/30 02:20:37;;;;;;;;;;;;;;;11.05;100.00;101169.41;5004571;28;20855;-71
2021/12/30 02:23:03;;;;;;;;;;;;;;;11.09;100.00;101166.09;5004579;28;19967;-68
2021/12/30 02:25:29;;;;;;;;;;;;;;;11.04;100.00;101159.94;5006593;28;19917;-70
2021/12/30 02:27:54;;;;;;;;;;;;;;;11.09;100.00;101165.22;5003534;28;19926;-70
2021/12/30 02:30:19;;;;;;;;;;;;;;;11.12;100.00;101171.34;5004824;28;20380;-69
2021/12/30 02:32:44;;;;;;;;;;;;;;;11.13;100.00;101172.22;5004129;28;19960;-69
2021/12/30 02:35:10;;;;;;;;;;;;;;;11.19;100.00;101173.28;5005142;28;19930;-69
2021/12/30 02:37:35;;;;;;;;;;;;;;;11.14;100.00;101168.81;5005286;28;19960;-70
2021/12/30 02:40:01;;;;;;;;;;;;;;;11.14;100.00;101161.09;5004927;28;19926;-68
2021/12/30 02:42:26;;;;;;;;;;;;;;;11.16;100.00;101167.16;5003199;28;20019;-70
2021/12/30 02:44:52;;;;;;;;;;;;;;;11.13;100.00;101162.78;5005012;28;19963;-70
2021/12/30 02:47:18;;;;;;;;;;;;;;;11.15;100.00;101170.56;5003141;28;19925;-71
2021/12/30 02:49:43;;;;;;;;;;;;;;;11.14;100.00;101164.53;5005194;28;19924;-69
2021/12/30 02:52:08;;;;;;;;;;;;;;;11.15;100.00;101168.84;5003421;28;19953;-69
2021/12/30 02:54:34;;;;;;;;;;;;;;;11.21;100.00;101163.88;5004712;28;19932;-69
2021/12/30 02:56:59;;;;;;;;;;;;;;;11.15;100.00;101168.84;5004834;28;19972;-69
2021/12/30 02:59:24;;;;;;;;;;;;;;;11.20;100.00;101169.88;5004094;28;19980;-69
2021/12/30 03:01:49;;;;;;;;;;;;;;;11.18;100.00;101173.25;5003857;28;19934;-69
2021/12/30 03:04:15;;;;;;;;;;;;;;;11.15;100.00;101174.00;5004810;28;20328;-70
2021/12/30 03:06:40;;;;;;;;;;;;;;;11.17;100.00;101174.94;5002890;28;19934;-69
2021/12/30 03:09:05;;;;;;;;;;;;;;;11.34;100.00;101177.13;5004188;28;19917;-71
2021/12/30 03:11:30;;;;;;;;;;;;;;;11.27;100.00;101182.09;5003330;28;19933;-71
2021/12/30 03:13:56;;;;;;;;;;;;;;;11.25;100.00;101182.88;5005975;28;19925;-70
2021/12/30 03:16:23;;;;;;;;;;;;;;;11.20;100.00;101177.59;5002249;28;20008;-71
2021/12/30 03:18:49;;;;;;;;;;;;;;;11.21;100.00;101184.47;5002001;28;20064;-71
2021/12/30 03:21:16;;;;;;;;;;;;;;;11.20;100.00;101187.88;5003873;28;20376;-71
2021/12/30 03:23:41;;;;;;;;;;;;;;;11.18;100.00;101183.53;5003176;28;19917;-71
2021/12/30 03:26:07;;;;;;;;;;;;;;;11.23;100.00;101189.69;5004080;28;19928;-71
2021/12/30 03:28:33;;;;;;;;;;;;;;;11.23;100.00;101182.84;5002392;28;19927;-71
2021/12/30 03:30:59;;;;;;;;;;;;;;;11.28;100.00;101177.81;5003138;28;19952;-71
2021/12/30 03:33:25;;;;;;;;;;;;;;;11.31;100.00;101187.34;5004455;28;20532;-71
2021/12/30 03:35:50;;;;;;;;;;;;;;;11.27;100.00;101184.66;5003283;28;20368;-72
2021/12/30 03:38:16;;;;;;;;;;;;;;;11.28;100.00;101182.97;5003857;28;20399;-72
2021/12/30 03:40:41;;;;;;;;;;;;;;;11.27;100.00;101182.09;5003523;28;19928;-72
2021/12/30 03:43:06;;;;;;;;;;;;;;;11.29;100.00;101184.75;5003748;28;19983;-71
2021/12/30 03:45:31;;;;;;;;;;;;;;;11.29;100.00;101184.75;5004748;28;20396;-72
2021/12/30 03:47:57;;;;;;;;;;;;;;;11.31;100.00;101188.22;5002696;28;19930;-71
2021/12/30 03:50:24;;;;;;;;;;;;;;;11.32;100.00;101184.81;5003088;28;20054;-72
2021/12/30 03:52:51;;;;;;;;;;;;;;;11.33;100.00;101175.38;5003190;28;19964;-71
2021/12/30 03:55:17;;;;;;;;;;;;;;;11.34;100.00;101175.44;5001761;28;20592;-71
2021/12/30 03:57:43;;;;;;;;;;;;;;;11.37;100.00;101177.22;5004461;28;20045;-72
2021/12/30 04:00:09;;;;;;;;;;;;;;;11.37;100.00;101175.53;5002387;28;20447;-72
2021/12/30 04:02:34;;;;;;;;;;;;;;;11.40;100.00;101172.16;5001449;28;19924;-71
2021/12/30 04:04:59;;;;;;;;;;;;;;;11.44;100.00;101179.16;5001893;28;19936;-72
2021/12/30 04:07:25;;;;;;;;;;;;;;;11.50;100.00;101167.34;5002877;28;20011;-72
2021/12/30 04:09:50;;;;;;;;;;;;;;;11.49;100.00;101182.75;5003433;28;20292;-72
2021/12/30 04:12:18;;;;;;;;;;;;;;;11.51;100.00;101187.09;4997772;28;20008;-71
2021/12/30 04:14:43;;;;;;;;;;;;;;;11.55;100.00;101183.81;5008416;28;19932;-72
2021/12/30 04:17:08;;;;;;;;;;;;;;;11.56;100.00;101179.50;5007008;28;19922;-71
2021/12/30 04:19:34;;;;;;;;;;;;;;;11.60;100.00;101186.50;5005909;28;19940;-71
2021/12/30 04:21:59;;;;;;;;;;;;;;;11.62;100.00;101192.56;5006309;28;19929;-72
2021/12/30 04:24:24;;;;;;;;;;;;;;;11.64;100.00;101201.22;5007043;28;19928;-73
2021/12/30 04:26:50;;;;;;;;;;;;;;;11.69;100.00;101194.50;5006202;28;19925;-72
2021/12/30 04:29:19;;;;;;;;;;;;;;;11.70;100.00;101197.94;5008032;28;20000;-72
2021/12/30 04:31:45;;;;;;;;;;;;;;;11.75;100.00;101204.09;5005951;28;19925;-73
2021/12/30 04:34:10;;;;;;;;;;;;;;;11.85;100.00;101207.84;5006270;28;19936;-73
2021/12/30 04:36:35;;;;;;;;;;;;;;;11.84;100.00;101207.00;5006647;28;19926;-73
2021/12/30 04:39:01;;;;;;;;;;;;;;;11.85;100.00;101200.13;5006510;28;19944;-73
2021/12/30 04:41:26;;;;;;;;;;;;;;;11.87;100.00;101196.75;5005820;28;19931;-73
2021/12/30 04:43:51;;;;;;;;;;;;;;;11.92;100.00;101200.34;5005799;28;20273;-72
2021/12/30 04:46:17;;;;;;;;;;;;;;;11.93;100.00;101208.94;4998902;28;19972;-73
2021/12/30 04:48:42;;;;;;;;;;;;;;;11.91;100.00;101211.47;5004570;28;21316;-71
2021/12/30 04:51:08;;;;;;;;;;;;;;;11.98;100.00;101215.09;5005571;28;19967;-72
2021/12/30 04:53:33;;;;;;;;;;;;;;;11.96;100.00;101216.78;5004344;28;20024;-73
2021/12/30 04:55:58;;;;;;;;;;;;;;;11.98;100.00;101209.94;5008337;28;20008;-72
2021/12/30 04:58:23;;;;;;;;;;;;;;;11.99;100.00;101206.53;5006168;28;19934;-72
2021/12/30 05:00:49;;;;;;;;;;;;;;;12.02;100.00;101212.66;5007119;28;20026;-73
2021/12/30 05:03:15;;;;;;;;;;;;;;;12.05;100.00;101207.56;5004945;28;19922;-70
2021/12/30 05:05:48;;;;;;;;;;;;;;;12.07;100.00;101215.34;5006697;28;20024;-72
2021/12/30 05:08:14;;;;;;;;;;;;;;;12.11;100.00;101209.44;5006095;28;20380;-72
2021/12/30 05:10:39;;;;;;;;;;;;;;;12.12;100.00;101212.88;5004412;28;19921;-71
2021/12/30 05:13:07;;;;;;;;;;;;;;;12.13;100.00;101214.63;5005040;28;20199;-71
2021/12/30 05:15:33;;;;;;;;;;;;;;;12.13;100.00;101209.47;5004410;28;20293;-70
2021/12/30 05:17:59;;;;;;;;;;;;;;;12.15;100.00;101213.88;5005280;28;19921;-71
2021/12/30 05:20:24;;;;;;;;;;;;;;;12.15;100.00;101221.59;5004221;28;20293;-71
2021/12/30 05:22:49;;;;;;;;;;;;;;;12.13;100.00;101217.22;5005852;28;19984;-71
2021/12/30 05:25:15;;;;;;;;;;;;;;;12.20;100.00;101217.44;5006513;28;20000;-71
2021/12/30 05:27:41;;;;;;;;;;;;;;;12.19;100.00;101225.09;5006925;28;19975;-70
2021/12/30 05:30:07;;;;;;;;;;;;;;;12.21;100.00;101228.63;5004159;28;19917;-71
2021/12/30 05:32:33;;;;;;;;;;;;;;;12.25;100.00;101245.91;5006875;28;19917;-71
2021/12/30 05:34:58;;;;;;;;;;;;;;;12.30;100.00;101241.75;5003495;28;19932;-72
2021/12/30 05:37:23;;;;;;;;;;;;;;;12.28;100.00;101233.97;5006092;28;19922;-70
2021/12/30 05:39:48;;;;;;;;;;;;;;;12.27;100.00;101255.44;5006332;28;20423;-72
2021/12/30 05:42:14;;;;;;;;;;;;;;;12.26;100.00;101251.13;5004327;28;19929;-72
2021/12/30 05:44:40;;;;;;;;;;;;;;;12.29;100.00;101264.09;5005458;28;20360;-71
2021/12/30 05:47:06;;;;;;;;;;;;;;;12.30;100.00;101259.78;5002318;28;20646;-71
2021/12/30 05:49:31;;;;;;;;;;;;;;;12.38;100.00;101258.31;5006678;28;19917;-71
2021/12/30 05:51:56;;;;;;;;;;;;;;;12.33;100.00;101262.47;5005888;28;20028;-71
2021/12/30 05:54:22;;;;;;;;;;;;;;;12.35;100.00;101258.22;5002580;28;20384;-72
2021/12/30 05:56:47;;;;;;;;;;;;;;;12.41;100.00;101266.13;5005658;28;20000;-71
2021/12/30 05:59:12;;;;;;;;;;;;;;;12.39;100.00;101259.19;5006745;28;19922;-72
2021/12/30 06:01:37;;;;;;;;;;;;;;;12.36;100.00;101262.53;5005499;28;20694;-72
2021/12/30 06:04:03;;;;;;;;;;;;;;;12.30;100.00;101255.50;5006306;28;19944;-71
2021/12/30 06:06:28;;;;;;;;;;;;;;;12.28;100.00;101259.75;5005106;28;19917;-71
2021/12/30 06:08:55;;;;;;;;;;;;;;;12.35;100.00;101263.38;5005179;28;20008;-70
2021/12/30 06:11:20;;;;;;;;;;;;;;;12.29;100.00;101264.09;5004642;28;20021;-70
2021/12/30 06:13:46;;;;;;;;;;;;;;;12.27;100.00;101252.88;5004044;28;19929;-73
2021/12/30 06:16:11;;;;;;;;;;;;;;;12.30;100.00;101262.38;5004666;28;19929;-73
2021/12/30 06:18:36;;;;;;;;;;;;;;;12.35;100.00;101269.41;5003822;28;20365;-70
2021/12/30 06:21:01;;;;;;;;;;;;;;;12.34;100.00;101262.50;5003045;28;19928;-70
2021/12/30 06:23:26;;;;;;;;;;;;;;;12.39;100.00;101270.38;5005142;28;20012;-71
2021/12/30 06:25:52;;;;;;;;;;;;;;;12.31;100.00;101264.13;5006069;28;20324;-72
2021/12/30 06:28:17;;;;;;;;;;;;;;;12.30;100.00;101252.06;5002413;28;19921;-71
2021/12/30 06:30:42;;;;;;;;;;;;;;;12.34;100.00;101262.50;5004357;28;20350;-71
2021/12/30 06:33:08;;;;;;;;;;;;;;;12.31;100.00;101271.84;5003116;28;19988;-71
2021/12/30 06:35:34;;;;;;;;;;;;;;;12.35;100.00;101269.41;5005435;28;20281;-70
2021/12/30 06:38:00;;;;;;;;;;;;;;;12.31;100.00;101265.00;5002314;28;19964;-71
2021/12/30 06:40:25;;;;;;;;;;;;;;;12.28;100.00;101266.63;5004741;28;19930;-71
2021/12/30 06:42:50;;;;;;;;;;;;;;;12.42;100.00;101270.44;5004343;28;19921;-69
2021/12/30 06:45:16;;;;;;;;;;;;;;;12.29;100.00;101263.22;5004205;28;19925;-70
2021/12/30 06:47:42;;;;;;;;;;;;;;;12.27;100.00;101281.22;5005627;28;19929;-70
2021/12/30 06:50:08;;;;;;;;;;;;;;;12.34;100.00;101274.53;5003524;28;19922;-70
2021/12/30 06:52:33;;;;;;;;;;;;;;;12.38;100.00;101281.53;5004102;28;20356;-71
2021/12/30 06:54:59;;;;;;;;;;;;;;;12.39;100.00;101278.13;5003210;28;19921;-71
2021/12/30 06:57:24;;;;;;;;;;;;;;;12.35;100.00;101279.72;5003787;28;19944;-72
2021/12/30 06:59:49;;;;;;;;;;;;;;;12.40;100.00;101290.19;5003904;28;19929;-71
2021/12/30 07:02:15;;;;;;;;;;;;;;;12.41;100.00;101297.06;5003086;28;20299;-71
2021/12/30 07:04:40;;;;;;;;;;;;;;;12.50;100.00;101305.06;5002173;28;19964;-71
2021/12/30 07:07:05;;;;;;;;;;;;;;;12.44;100.00;101322.09;5002924;28;20368;-72
2021/12/30 07:09:31;;;;;;;;;;;;;;;12.47;100.00;101306.69;5002756;28;19929;-71
2021/12/30 07:11:56;;;;;;;;;;;;;;;12.47;100.00;101311.84;5004431;28;19933;-70
2021/12/30 07:14:22;;;;;;;;;;;;;;;12.40;100.00;101318.53;5002042;28;20001;-71
2021/12/30 07:16:48;;;;;;;;;;;;;;;12.41;100.00;101320.28;5001359;28;19987;-70
2021/12/30 07:19:14;;;;;;;;;;;;;;;12.40;100.00;101317.66;5002119;28;19921;-71
2021/12/30 07:21:39;;;;;;;;;;;;;;;12.53;100.00;101323.19;5004421;28;19925;-69
2021/12/30 07:24:05;;;;;;;;;;;;;;;12.51;100.00;101326.59;5002298;28;19972;-71
2021/12/30 07:26:31;;;;;;;;;;;;;;;12.46;100.00;101325.56;5003122;28;19929;-70
2021/12/30 07:28:56;;;;;;;;;;;;;;;12.50;100.00;101332.59;5003767;28;20293;-68
2021/12/30 07:31:21;;;;;;;;;;;;;;;12.45;100.00;101327.28;5004097;28;19936;-68
2021/12/30 07:33:46;;;;;;;;;;;;;;;12.49;100.00;101333.38;5003406;28;20380;-70
2021/12/30 07:36:12;;;;;;;;;;;;;;;12.50;100.00;101335.16;5004266;28;20016;-71
2021/12/30 07:38:37;;;;;;;;;;;;;;;12.50;100.00;101333.44;5003106;28;20385;-70
2021/12/30 07:41:04;;;;;;;;;;;;;;;12.43;100.00;101339.25;5002764;28;19936;-71
2021/12/30 07:43:29;;;;;;;;;;;;;;;12.49;100.00;101348.84;5003990;28;19930;-70
2021/12/30 07:45:55;;;;;;;;;;;;;;;12.51;100.00;101342.06;5001566;28;19925;-69
2021/12/30 07:48:20;;;;;;;;;;;;;;;12.54;100.00;101350.75;5001118;28;19933;-69
2021/12/30 07:50:45;;;;;;;;;;;;;;;12.54;100.00;101340.41;5003776;28;19929;-70
2021/12/30 07:53:10;;;;;;;;;;;;;;;12.55;100.00;101349.03;5003602;28;19940;-70
2021/12/30 07:55:36;;;;;;;;;;;;;;;12.61;100.00;101354.34;5001373;28;20011;-70
2021/12/30 07:58:01;;;;;;;;;;;;;;;12.63;100.00;101352.72;5003870;28;19978;-71
2021/12/30 08:00:26;;;;;;;;;;;;;;;12.66;100.00;101342.47;5002252;28;19922;-70
2021/12/30 08:02:51;;;;;;;;;;;;;;;12.68;100.00;101340.81;5004695;28;20372;-70
2021/12/30 08:05:18;;;;;;;;;;;;;;;12.66;100.00;101339.88;5003584;28;20288;-71
2021/12/30 08:07:46;;;;;;;;;;;;;;;12.66;100.00;101341.59;5004119;28;19918;-70
2021/12/30 08:10:14;;;;;;;;;;;;;;;12.67;100.00;101349.38;5003109;28;19937;-70
2021/12/30 08:12:39;;;;;;;;;;;;;;;12.61;100.00;101354.34;5001744;28;20309;-71
2021/12/30 08:15:06;;;;;;;;;;;;;;;12.57;100.00;101362.88;5006108;28;19972;-70
2021/12/30 08:17:31;;;;;;;;;;;;;;;12.55;100.00;101367.97;5003439;28;20016;-69
2021/12/30 08:19:57;;;;;;;;;;;;;;;12.57;100.00;101370.59;5002591;28;20001;-69
2021/12/30 08:22:22;;;;;;;;;;;;;;;12.58;100.00;101380.09;5000138;28;19989;-69
2021/12/30 08:24:47;;;;;;;;;;;;;;;12.61;100.00;101383.59;5005736;28;19922;-69
2021/12/30 08:27:13;;;;;;;;;;;;;;;12.65;100.00;101384.59;5002551;28;19926;-72
2021/12/30 08:29:39;;;;;;;;;;;;;;;12.65;100.00;101383.72;5005948;28;20400;-70
2021/12/30 08:32:08;;;;;;;;;;;;;;;12.76;100.00;101383.19;5001164;28;19929;-70
2021/12/30 08:34:33;;;;;;;;;;;;;;;12.76;100.00;101374.56;5001077;28;19926;-69
2021/12/30 08:36:58;;;;;;;;;;;;;;;12.80;100.00;101377.28;5002722;28;19921;-70
2021/12/30 08:39:23;;;;;;;;;;;;;;;12.83;100.00;101382.50;5004176;28;19929;-71
2021/12/30 08:41:49;;;;;;;;;;;;;;;12.84;100.00;101385.97;5001900;28;19964;-68
2021/12/30 08:44:14;;;;;;;;;;;;;;;12.85;100.00;101390.28;4998641;28;20360;-69
2021/12/30 08:46:39;;;;;;;;;;;;;;;12.93;100.00;101399.13;5003070;28;19932;-69
2021/12/30 08:49:04;;;;;;;;;;;;;;;12.91;100.00;101397.31;5003590;28;20339;-69
2021/12/30 08:51:30;;;;;;;;;;;;;;;12.89;100.00;101395.56;5003469;28;19925;-69
2021/12/30 08:53:56;;;;;;;;;;;;;;;12.92;100.00;101402.50;5006485;28;20372;-70
2021/12/30 08:56:21;;;;;;;;;;;;;;;12.97;100.00;101407.81;5001916;28;19925;-71
2021/12/30 08:58:47;;;;;;;;;;;;;;;12.94;100.00;101410.31;5008932;28;19945;-70
2021/12/30 09:01:13;;;;;;;;;;;;;;;12.94;100.00;101413.78;5008031;28;20344;-70
2021/12/30 09:03:39;;;;;;;;;;;;;;;13.02;100.00;101421.72;5006393;28;19922;-70
2021/12/30 09:06:05;;;;;;;;;;;;;;;12.97;100.00;101413.84;5010137;28;20020;-69
2021/12/30 09:08:31;;;;;;;;;;;;;;;12.99;100.00;101419.94;5012469;28;19922;-69
2021/12/30 09:10:56;;;;;;;;;;;;;;;13.02;100.00;101420.00;5009593;28;19922;-70
2021/12/30 09:13:21;;;;;;;;;;;;;;;13.07;100.00;101423.59;5008098;28;21524;-70
2021/12/30 09:15:47;;;;;;;;;;;;;;;13.12;100.00;101431.47;4999879;28;19929;-70
2021/12/30 09:18:13;;;;;;;;;;;;;;;13.15;100.00;101422.06;5007286;28;19971;-72
2021/12/30 09:20:39;;;;;;;;;;;;;;;13.22;100.00;101417.09;5010717;28;19922;-71
2021/12/30 09:23:05;;;;;;;;;;;;;;;13.24;100.00;101442.16;5009785;28;19928;-69
2021/12/30 09:25:31;;;;;;;;;;;;;;;13.22;100.00;101436.06;5008633;28;19925;-71
2021/12/30 09:27:56;;;;;;;;;;;;;;;13.24;100.00;101439.56;5010653;28;20446;-71
2021/12/30 09:30:23;;;;;;;;;;;;;;;13.27;100.00;101431.03;5007279;28;19928;-73
2021/12/30 09:32:49;;;;;;;;;;;;;;;13.35;100.00;101440.72;5009961;28;19917;-70
2021/12/30 09:35:15;;;;;;;;;;;;;;;13.42;100.00;101444.34;5009704;28;19917;-71
2021/12/30 09:37:42;;;;;;;;;;;;;;;13.52;100.00;101440.28;5008886;28;20380;-69
2021/12/30 09:40:13;;;;;;;;;;;;;;;13.64;100.00;101438.00;5006878;28;20404;-72
2021/12/30 09:42:39;;;;;;;;;;;;;;;13.63;100.00;101444.88;5008612;28;19917;-69
2021/12/30 09:45:05;;;;;;;;;;;;;;;13.67;100.00;101461.34;5008360;28;20388;-70
2021/12/30 09:47:30;;;;;;;;;;;;;;;13.71;100.00;101454.50;5005980;28;19937;-68
2021/12/30 09:49:56;;;;;;;;;;;;;;;13.76;100.00;101469.31;5008339;28;19921;-69
2021/12/30 09:52:21;;;;;;;;;;;;;;;13.77;100.00;101472.75;5011026;28;19936;-69
2021/12/30 09:54:46;;;;;;;;;;;;;;;13.78;100.00;101462.47;5011382;28;19922;-69
2021/12/30 09:57:12;;;;;;;;;;;;;;;13.73;100.00;101471.81;4997234;28;20246;-72
2021/12/30 09:59:37;;;;;;;;;;;;;;;13.73;100.00;101464.06;5007569;28;20348;-68
2021/12/30 10:02:02;;;;;;;;;;;;;;;13.85;100.00;101466.97;5011313;28;19925;-68
2021/12/30 10:04:29;;;;;;;;;;;;;;;13.84;100.00;101459.19;5010917;28;19926;-69
2021/12/30 10:06:55;;;;;;;;;;;;;;;13.82;100.00;101453.94;5010819;28;20359;-68
2021/12/30 10:09:27;;;;;;;;;;;;;;;13.83;100.00;101450.53;5011464;28;19925;-70
2021/12/30 10:11:56;;;;;;;;;;;;;;;13.97;100.00;101460.34;5012233;28;19926;-68
2021/12/30 10:14:33;;;;;;;;;;;;;;;14.04;100.00;101450.16;5008773;28;19922;-68
2021/12/30 10:17:14;;;;;;;;;;;;;;;14.10;100.00;101460.66;5007080;28;19924;-70
2021/12/30 10:19:39;;;;;;;;;;;;;;;14.23;100.00;101473.03;5008504;28;20072;-69
2021/12/30 10:22:09;;;;;;;;;;;;;;;14.34;100.00;101460.34;5010971;28;20404;-69
2021/12/30 10:24:34;;;;;;;;;;;;;;;14.30;99.70;101474.03;5009891;28;19925;-69
2021/12/30 10:26:59;;;;;;;;;;;;;;;14.32;97.39;101471.47;4993170;28;19930;-68
2021/12/30 10:29:25;;;;;;;;;;;;;;;14.26;100.00;101473.91;5003569;28;19941;-68
2021/12/30 10:31:50;;;;;;;;;;;;;;;14.17;98.62;101475.47;5008936;28;19933;-70
2021/12/30 10:34:17;;;;;;;;;;;;;;;14.11;100.00;101474.44;5010535;28;19925;-69
2021/12/30 10:36:42;;;;;;;;;;;;;;;13.98;99.41;101460.38;5007969;28;19928;-69
2021/12/30 10:39:14;;;;;;;;;;;;;;;13.92;99.12;101471.44;5010224;28;19917;-70
2021/12/30 10:41:39;;;;;;;;;;;;;;;13.90;100.00;101473.13;5009686;28;19937;-70
2021/12/30 10:44:05;;;;;;;;;;;;;;;13.88;100.00;101474.78;5011445;28;20319;-69
2021/12/30 10:46:30;;;;;;;;;;;;;;;13.89;100.00;101468.78;5009824;28;19942;-68
2021/12/30 10:48:57;;;;;;;;;;;;;;;13.89;99.23;101471.38;5006242;28;19964;-70
2021/12/30 10:51:24;;;;;;;;;;;;;;;13.91;100.00;101469.69;5007411;28;19926;-69
2021/12/30 10:53:51;;;;;;;;;;;;;;;13.98;100.00;101462.94;5008095;28;19936;-69
2021/12/30 10:56:19;;;;;;;;;;;;;;;14.07;100.00;101475.22;5010549;28;20025;-71
2021/12/30 10:58:44;;;;;;;;;;;;;;;14.20;100.00;101477.28;5010187;28;20539;-70
2021/12/30 11:01:17;;;;;;;;;;;;;;;14.21;98.42;101474.72;5010890;28;20012;-70
2021/12/30 11:03:53;;;;;;;;;;;;;;;14.28;99.65;101475.72;5010261;28;19917;-70
2021/12/30 11:06:18;;;;;;;;;;;;;;;14.31;98.87;101473.19;5008495;28;19920;-70
2021/12/30 11:08:43;;;;;;;;;;;;;;;14.30;100.00;101473.16;5005222;28;20016;-69
2021/12/30 11:11:22;;;;;;;;;;;;;;;14.31;98.35;101478.34;5004468;28;19922;-69
2021/12/30 11:14:06;;;;;;;;;;;;;;;14.32;96.79;101482.72;5007974;28;19972;-70
2021/12/30 11:16:31;;;;;;;;;;;;;;;14.37;97.68;101486.25;5006537;28;21343;-71
2021/12/30 11:18:57;;;;;;;;;;;;;;;14.35;98.71;101481.91;5004793;28;19927;-70
2021/12/30 11:21:39;;;;;;;;;;;;;;;14.33;97.83;101479.28;5006107;28;19940;-70
2021/12/30 11:24:04;;;;;;;;;;;;;;;14.31;97.61;101478.34;5005400;28;19960;-68
2021/12/30 11:26:31;;;;;;;;;;;;;;;14.40;97.02;101486.34;5007206;28;20347;-69
2021/12/30 11:28:57;;;;;;;;;;;;;;;14.57;97.16;101466.06;5009880;28;19921;-70
2021/12/30 11:31:22;;;;;;;;;;;;;;;14.81;94.30;101470.00;5004859;28;19993;-69
2021/12/30 11:33:48;;;;;;;;;;;;;;;15.01;94.01;101468.66;5010264;28;19963;-69
2021/12/30 11:36:15;;;;;;;;;;;;;;;15.09;93.65;101474.84;5008702;28;19929;-72
2021/12/30 11:38:41;;;;;;;;;;;;;;;15.09;93.39;101479.16;5003400;28;19964;-68
2021/12/30 11:41:06;;;;;;;;;;;;;;;15.00;93.34;101470.38;5001764;28;19969;-67
2021/12/30 11:43:42;;;;;;;;;;;;;;;14.97;91.76;101483.25;5009070;28;20042;-69
2021/12/30 11:46:07;;;;;;;;;;;;;;;14.99;93.32;101491.94;5006253;28;19932;-70
2021/12/30 11:48:38;;;;;;;;;;;;;;;14.97;91.43;101483.25;5008994;28;19921;-69
2021/12/30 11:51:05;;;;;;;;;;;;;;;14.89;93.14;101471.88;5009076;28;19925;-70
2021/12/30 11:53:30;;;;;;;;;;;;;;;14.91;94.22;101480.53;5008247;28;19925;-69
2021/12/30 11:55:57;;;;;;;;;;;;;;;15.00;93.56;101482.47;5008121;28;19922;-69
2021/12/30 11:58:29;;;;;;;;;;;;;;;15.26;94.45;101470.00;5009511;28;19921;-70
2021/12/30 12:00:55;;;;;;;;;;;;;;;15.46;91.71;101471.22;5009992;28;19914;-69
2021/12/30 12:03:28;;;;;;;;;;;;;;;15.57;91.26;101476.59;5001923;28;20135;-69
2021/12/30 12:09:02;;;;;;;;;;;;;;;15.74;89.29;101493.34;4989786;28;20015;-72
2021/12/30 12:11:29;;;;;;;;;;;;;;;15.77;88.08;101492.53;4995026;28;19993;-71
2021/12/30 12:13:55;;;;;;;;;;;;;;;15.87;88.96;101496.16;5002664;28;19927;-68
2021/12/30 12:16:39;;;;;;;;;;;;;;;15.90;86.85;101511.78;5003553;28;20406;-70
2021/12/30 12:19:08;;;;;;;;;;;;;;;15.70;87.51;101506.22;5001606;28;20290;-69
2021/12/30 12:21:41;;;;;;;;;;;;;;;15.51;90.00;101495.50;5002898;28;19922;-74
2021/12/30 12:24:22;;;;;;;;;;;;;;;15.37;89.66;101506.47;5002524;28;20035;-71
2021/12/30 12:26:51;;;;;;;;;;;;;;;15.18;90.10;101494.91;5000843;28;20380;-71